This is the latest recevied weather packets stored in our database for station/object E22ZMG-1. If no packets are shown the sender has not sent any weather packets the latest 10 day(s).
| Time | Temp. | Humidity | Pressure | Rain* | Wind** | Luminosity | Snow |
|---|---|---|---|---|---|---|---|
| 1777776067 | 38.33° C | 35% | 976 hPa | - | - | 0 W/m² | - |
| 1777775443 | 37.78° C | 35% | 976 hPa | - | - | 0 W/m² | - |
| 1777774818 | 37.78° C | 35% | 976 hPa | - | - | 0 W/m² | - |
| 1777774193 | 36.67° C | 37% | 976 hPa | - | - | 0 W/m² | - |
| 1777773566 | 37.22° C | 37% | 976 hPa | - | - | 0 W/m² | - |
| 1777772940 | 36.11° C | 39% | 976 hPa | - | - | 0 W/m² | - |
| 1777772316 | 35.56° C | 40% | 976 hPa | - | - | 0 W/m² | - |
| 1777771689 | 36.11° C | 39% | 976 hPa | - | - | 0 W/m² | - |
| 1777771063 | 35.56° C | 40% | 975 hPa | - | - | 0 W/m² | - |
| 1777770437 | 35° C | 41% | 975 hPa | - | - | 0 W/m² | - |
| 1777769164 | 34.44° C | 43% | 975 hPa | - | - | 0 W/m² | - |
| 1777768540 | 34.44° C | 43% | 975 hPa | - | - | 0 W/m² | - |
| 1777767915 | 34.44° C | 43% | 975 hPa | - | - | 0 W/m² | - |
| 1777767285 | 33.89° C | 44% | 975 hPa | - | - | 0 W/m² | - |
| 1777766654 | 33.89° C | 44% | 975 hPa | - | - | 0 W/m² | - |
| 1777766028 | 33.33° C | 45% | 974 hPa | - | - | 0 W/m² | - |
| 1777765403 | 33.33° C | 46% | 974 hPa | - | - | 0 W/m² | - |
| 1777764778 | 32.78° C | 49% | 974 hPa | - | - | 0 W/m² | - |
| 1777764153 | 33.33° C | 47% | 974 hPa | - | - | 0 W/m² | - |
| 1777763528 | 32.78° C | 48% | 974 hPa | - | - | 0 W/m² | - |
| 1777762903 | 33.33° C | 47% | 974 hPa | - | - | 0 W/m² | - |
| 1777762278 | 32.78° C | 48% | 974 hPa | - | - | 0 W/m² | - |
| 1777761653 | 33.33° C | 46% | 974 hPa | - | - | 0 W/m² | - |
| 1777761028 | 33.89° C | 46% | 974 hPa | - | - | 0 W/m² | - |
| 1777760404 | 33.89° C | 46% | 974 hPa | - | - | 0 W/m² | - |
* Rain since midnight (hover to see other rain measurements)
** Current wind speed in m/s (hover to see current wind gust speed)